Time;durP1;ratioP1;P1;durP2;ratioP2;P2;SDS_P1;SDS_P2;PMS_P1;PMS_P2;Temp;Humidity;BMP_temperature;BMP_pressure;BME280_temperature;BME280_humidity;BME280_pressure;Samples;Min_cycle;Max_cycle;Signal;HPM_P1;HPM_P2
2021/05/30 00:00:00;;;;;;;8.75;5.10;;;14.10;92.50;;;;;;5030348;28;20500;-79
2021/05/30 00:02:26;;;;;;;13.73;6.20;;;14.10;92.60;;;;;;5030242;28;20044;-78
2021/05/30 00:04:52;;;;;;;9.45;5.75;;;14.10;92.60;;;;;;5047997;28;20028;-78
2021/05/30 00:07:22;;;;;;;9.52;5.13;;;14.10;92.70;;;;;;5030339;28;20033;-78
2021/05/30 00:09:48;;;;;;;14.80;5.88;;;14.10;92.70;;;;;;5031063;28;20044;-79
2021/05/30 00:12:13;;;;;;;12.10;6.03;;;14.00;92.80;;;;;;5047373;28;20025;-78
2021/05/30 00:14:39;;;;;;;9.82;5.25;;;14.00;92.80;;;;;;5013583;28;20123;-78
2021/05/30 00:17:05;;;;;;;8.57;5.22;;;14.00;92.90;;;;;;5047957;28;20029;-77
2021/05/30 00:19:31;;;;;;;8.32;5.80;;;14.00;93.00;;;;;;5048200;28;20124;-79
2021/05/30 00:21:57;;;;;;;10.32;6.18;;;14.00;93.10;;;;;;5013458;28;20479;-78
2021/05/30 00:24:23;;;;;;;11.23;7.30;;;14.00;93.10;;;;;;5030216;28;20060;-78
2021/05/30 00:26:48;;;;;;;10.02;5.78;;;14.00;93.20;;;;;;5047740;28;20028;-79
2021/05/30 00:29:14;;;;;;;10.05;5.22;;;14.00;93.30;;;;;;5029688;28;20475;-80
2021/05/30 00:31:40;;;;;;;13.00;5.57;;;13.90;93.20;;;;;;5029962;28;20172;-78
2021/05/30 00:34:06;;;;;;;13.90;5.78;;;13.90;93.20;;;;;;5013590;28;20391;-79
2021/05/30 00:36:31;;;;;;;12.93;5.43;;;13.90;93.20;;;;;;5047815;28;20029;-78
2021/05/30 00:38:57;;;;;;;11.65;6.38;;;13.80;93.30;;;;;;5029853;28;20436;-79
2021/05/30 00:41:23;;;;;;;10.43;6.05;;;13.80;93.40;;;;;;5029768;28;20022;-78
2021/05/30 00:43:55;;;;;;;11.85;6.68;;;13.80;93.50;;;;;;5013481;28;20509;-79
2021/05/30 00:46:21;;;;;;;9.55;5.47;;;13.80;93.60;;;;;;5047556;28;20029;-78
2021/05/30 00:48:48;;;;;;;11.00;6.03;;;13.80;93.60;;;;;;5013510;28;20478;-79
2021/05/30 00:51:15;;;;;;;10.00;6.00;;;13.70;93.50;;;;;;5013491;28;20220;-80
2021/05/30 00:53:42;;;;;;;13.60;6.30;;;13.70;93.60;;;;;;5013529;28;20033;-79
2021/05/30 00:56:12;;;;;;;9.95;6.82;;;13.70;93.70;;;;;;5029496;28;20051;-80
2021/05/30 00:58:39;;;;;;;11.57;7.18;;;13.70;93.80;;;;;;5029629;28;20033;-79
2021/05/30 01:01:06;;;;;;;11.15;7.70;;;13.70;93.80;;;;;;5013408;28;20124;-79
2021/05/30 01:03:35;;;;;;;10.70;6.95;;;13.80;97.60;;;;;;5047901;28;20514;-79
2021/05/30 01:06:02;;;;;;;;;;;13.70;94.20;;;;;;5048009;28;20053;-78
2021/05/30 01:08:28;;;;;;;11.82;6.32;;;13.70;93.70;;;;;;5047648;28;19905;-79
2021/05/30 01:11:03;;;;;;;8.80;6.72;;;13.70;93.60;;;;;;5047555;28;20067;-79
2021/05/30 01:13:29;;;;;;;11.93;7.40;;;13.60;93.80;;;;;;5013128;28;20033;-79
2021/05/30 01:15:55;;;;;;;11.95;6.35;;;13.60;93.80;;;;;;5029574;28;20025;-78
2021/05/30 01:18:23;;;;;;;8.45;4.95;;;13.60;93.90;;;;;;5013085;28;20454;-81
2021/05/30 01:20:51;;;;;;;9.05;5.63;;;13.60;93.90;;;;;;5029924;28;20103;-81
2021/05/30 01:23:18;;;;;;;8.65;6.82;;;13.60;93.90;;;;;;5012975;28;20094;-78
2021/05/30 01:25:47;;;;;;;8.20;6.93;;;13.50;94.00;;;;;;5033585;28;20024;-79
2021/05/30 01:28:14;;;;;;;11.25;8.13;;;13.50;94.00;;;;;;5051044;28;20452;-79
2021/05/30 01:30:41;;;;;;;9.95;8.02;;;13.50;94.10;;;;;;5050788;28;20033;-79
2021/05/30 01:33:06;;;;;;;13.07;8.15;;;13.40;94.20;;;;;;5016410;28;20033;-79
2021/05/30 01:35:33;;;;;;;14.40;8.65;;;13.40;94.20;;;;;;5033160;28;20041;-79
2021/05/30 01:37:59;;;;;;;17.33;9.00;;;13.40;94.40;;;;;;5050844;28;20032;-79
2021/05/30 01:40:25;;;;;;;12.00;8.35;;;13.30;94.40;;;;;;5032780;28;20026;-79
2021/05/30 01:42:54;;;;;;;12.75;8.23;;;13.30;94.60;;;;;;5016516;28;20048;-79
2021/05/30 01:45:21;;;;;;;16.63;9.60;;;13.30;94.70;;;;;;5032722;28;20078;-79
2021/05/30 01:47:48;;;;;;;13.63;9.40;;;13.30;94.70;;;;;;5016579;28;20057;-78
2021/05/30 01:50:17;;;;;;;12.07;8.95;;;13.30;94.80;;;;;;5016280;28;20029;-80
2021/05/30 01:52:43;;;;;;;;;;;13.30;94.90;;;;;;5033339;28;20032;-78
2021/05/30 01:55:23;;;;;;;12.48;7.95;;;13.30;94.80;;;;;;5032573;28;20295;-79
2021/05/30 01:57:51;;;;;;;11.25;8.32;;;13.30;94.60;;;;;;5050586;28;20025;-79
2021/05/30 02:00:18;;;;;;;16.90;9.02;;;13.20;94.60;;;;;;5032842;28;20182;-80
2021/05/30 02:02:46;;;;;;;12.57;8.07;;;13.20;94.70;;;;;;5050525;28;20104;-79
2021/05/30 02:05:12;;;;;;;11.52;8.02;;;13.20;94.80;;;;;;5050708;28;20031;-79
2021/05/30 02:07:39;;;;;;;15.82;10.32;;;13.20;94.80;;;;;;5032458;28;20025;-81
2021/05/30 02:10:07;;;;;;;10.07;7.80;;;13.20;94.80;;;;;;5032563;28;20029;-79
2021/05/30 02:12:34;;;;;;;14.55;8.48;;;13.20;94.90;;;;;;5032584;28;20024;-79
2021/05/30 02:15:00;;;;;;;8.98;6.45;;;13.20;94.80;;;;;;5032479;28;20079;-79
2021/05/30 02:17:26;;;;;;;12.32;6.40;;;13.20;94.80;;;;;;5050091;28;20037;-78
2021/05/30 02:19:52;;;;;;;11.52;7.22;;;13.10;94.80;;;;;;5032424;28;20021;-79
2021/05/30 02:22:18;;;;;;;11.52;8.05;;;13.10;94.80;;;;;;5032353;28;20079;-78
2021/05/30 02:24:45;;;;;;;11.27;7.63;;;13.10;94.80;;;;;;5032461;28;20027;-79
2021/05/30 02:27:11;;;;;;;9.63;7.10;;;13.00;94.90;;;;;;5032359;28;20029;-80
2021/05/30 02:29:40;;;;;;;11.40;7.28;;;13.00;94.90;;;;;;5032462;28;20025;-79
2021/05/30 02:32:07;;;;;;;8.93;7.38;;;13.00;94.90;;;;;;5050205;28;20036;-79
2021/05/30 02:34:34;;;;;;;13.05;7.80;;;13.00;95.00;;;;;;5032365;28;20423;-79
2021/05/30 02:37:00;;;;;;;10.82;7.38;;;13.00;95.00;;;;;;5015010;28;20032;-79
2021/05/30 02:39:25;;;;;;;8.52;6.93;;;13.00;95.00;;;;;;5032149;28;20411;-79
2021/05/30 02:41:51;;;;;;;9.80;6.78;;;13.00;95.00;;;;;;5015529;28;20032;-79
2021/05/30 02:44:17;;;;;;;8.07;6.18;;;12.90;95.00;;;;;;5015622;28;20391;-79
2021/05/30 02:46:42;;;;;;;8.43;5.82;;;12.90;95.00;;;;;;5032114;28;20053;-80
2021/05/30 02:49:08;;;;;;;5.97;5.15;;;12.90;95.00;;;;;;5031806;28;20055;-80
2021/05/30 02:51:34;;;;;;;6.72;5.47;;;12.80;95.00;;;;;;5032071;28;20036;-79
2021/05/30 02:54:01;;;;;;;9.00;6.75;;;12.80;94.90;;;;;;5015383;28;20801;-78
2021/05/30 02:56:27;;;;;;;10.73;6.72;;;12.70;94.90;;;;;;5031917;28;20025;-78
2021/05/30 02:58:53;;;;;;;17.08;8.85;;;12.70;95.00;;;;;;5049778;28;20409;-79
2021/05/30 03:01:19;;;;;;;11.48;7.47;;;12.70;95.00;;;;;;5031647;28;20021;-79
2021/05/30 03:03:45;;;;;;;12.18;8.50;;;12.70;95.10;;;;;;5015186;28;20075;-79
2021/05/30 03:06:11;;;;;;;9.95;7.72;;;12.60;95.20;;;;;;5015049;28;20509;-79
2021/05/30 03:08:36;;;;;;;15.05;9.25;;;12.60;95.20;;;;;;5015364;28;20483;-81
2021/05/30 03:11:02;;;;;;;12.38;8.98;;;12.60;95.30;;;;;;5015108;28;20090;-78
2021/05/30 03:13:29;;;;;;;13.07;7.90;;;12.60;95.30;;;;;;5014906;28;20514;-79
2021/05/30 03:15:54;;;;;;;10.20;7.88;;;12.60;95.30;;;;;;5015112;28;20033;-79
2021/05/30 03:18:20;;;;;;;11.43;8.07;;;12.60;95.30;;;;;;5015169;28;20044;-78
2021/05/30 03:20:46;;;;;;;12.95;9.18;;;12.60;95.40;;;;;;5014736;28;20050;-79
2021/05/30 03:23:11;;;;;;;12.32;9.23;;;12.50;95.40;;;;;;5014999;28;20021;-79
2021/05/30 03:25:38;;;;;;;11.05;8.00;;;12.40;95.50;;;;;;5031337;28;20033;-79
2021/05/30 03:28:04;;;;;;;15.07;11.43;;;12.30;95.70;;;;;;5049418;28;20021;-78
2021/05/30 03:30:30;;;;;;;14.70;10.52;;;12.30;95.80;;;;;;5031173;28;20033;-79
2021/05/30 03:32:56;;;;;;;15.20;10.50;;;12.40;95.90;;;;;;5031180;28;20035;-78
2021/05/30 03:35:22;;;;;;;15.15;10.27;;;12.30;95.90;;;;;;5030994;28;20033;-79
2021/05/30 03:37:48;;;;;;;15.65;11.52;;;12.40;95.90;;;;;;5014668;28;20039;-80
2021/05/30 03:41:00;;;;;;;13.60;9.60;;;12.30;96.00;;;;;;5031345;28;20021;-79
2021/05/30 03:43:04;;;;;;;13.05;9.45;;;12.30;96.00;;;;;;5026270;28;20061;-79
2021/05/30 03:45:29;;;;;;;11.70;8.77;;;12.30;95.90;;;;;;5014355;28;20033;-79
2021/05/30 03:47:55;;;;;;;11.57;7.47;;;12.40;95.80;;;;;;5048729;28;20029;-79
2021/05/30 03:50:21;;;;;;;9.68;7.28;;;12.30;95.80;;;;;;5014289;28;20040;-79
2021/05/30 03:52:47;;;;;;;9.80;7.07;;;12.40;95.70;;;;;;5014459;28;20033;-78
2021/05/30 03:55:14;;;;;;;10.45;8.18;;;12.30;95.70;;;;;;5014219;28;20045;-78
2021/05/30 03:57:40;;;;;;;11.50;7.13;;;12.30;95.70;;;;;;5014536;28;20075;-80
2021/05/30 04:00:08;;;;;;;10.85;8.10;;;12.20;95.70;;;;;;5014162;28;20060;-79
2021/05/30 04:02:34;;;;;;;14.07;9.73;;;12.20;95.80;;;;;;5014220;28;20021;-79
2021/05/30 04:05:00;;;;;;;12.25;9.68;;;12.20;95.80;;;;;;5014152;28;20033;-79
2021/05/30 04:07:25;;;;;;;13.65;8.95;;;12.20;95.80;;;;;;5030544;28;20052;-79
2021/05/30 04:09:51;;;;;;;12.55;9.13;;;12.20;95.80;;;;;;5030508;28;20471;-79
2021/05/30 04:12:17;;;;;;;18.95;9.30;;;12.20;95.80;;;;;;5014067;28;20025;-80
2021/05/30 04:14:42;;;;;;;9.27;6.82;;;12.20;95.80;;;;;;5014076;28;20040;-78
2021/05/30 04:17:08;;;;;;;10.90;7.78;;;12.10;95.80;;;;;;5030592;28;20123;-78
2021/05/30 04:19:34;;;;;;;9.80;8.00;;;12.10;95.80;;;;;;5013613;28;20038;-78
2021/05/30 04:22:00;;;;;;;9.77;6.95;;;12.10;95.80;;;;;;5014214;28;20413;-80
2021/05/30 04:24:26;;;;;;;9.93;7.20;;;12.10;95.70;;;;;;5030908;28;20102;-78
2021/05/30 04:26:52;;;;;;;8.13;5.80;;;12.10;95.70;;;;;;5014421;28;20582;-78
2021/05/30 04:29:18;;;;;;;7.90;6.15;;;12.10;95.70;;;;;;5030497;28;20025;-78
2021/05/30 04:31:43;;;;;;;9.85;7.93;;;12.10;95.60;;;;;;5030498;28;20025;-79
2021/05/30 04:34:09;;;;;;;11.75;8.90;;;12.10;95.60;;;;;;5013966;28;20036;-78
2021/05/30 04:36:35;;;;;;;16.63;10.30;;;12.10;95.60;;;;;;5013985;28;20033;-78
2021/05/30 04:39:00;;;;;;;9.00;7.50;;;12.00;95.50;;;;;;5013932;28;20553;-79
2021/05/30 04:41:26;;;;;;;13.88;8.85;;;12.00;95.50;;;;;;5030571;28;20072;-81
2021/05/30 04:43:52;;;;;;;15.68;9.07;;;12.00;95.60;;;;;;5013452;28;20040;-78
2021/05/30 04:46:18;;;;;;;12.20;9.15;;;12.00;95.60;;;;;;5013621;28;20098;-79
2021/05/30 04:48:43;;;;;;;12.27;10.05;;;11.90;95.70;;;;;;5029998;28;20037;-80
2021/05/30 04:51:12;;;;;;;19.98;10.55;;;12.00;95.80;;;;;;5013640;28;20110;-81
2021/05/30 04:53:40;;;;;;;16.83;10.77;;;12.00;96.10;;;;;;5030208;28;20033;-79
2021/05/30 04:56:07;;;;;;;11.95;8.73;;;12.00;96.00;;;;;;5013584;28;20069;-79
2021/05/30 04:58:34;;;;;;;15.50;9.27;;;12.00;96.00;;;;;;5049131;28;20031;-79
2021/05/30 05:01:04;;;;;;;13.25;9.85;;;12.10;96.00;;;;;;5034623;28;20285;-80
2021/05/30 05:03:31;;;;;;;15.20;8.50;;;12.10;96.00;;;;;;5034095;28;20029;-79
2021/05/30 05:05:57;;;;;;;12.13;9.05;;;12.20;96.00;;;;;;5017139;28;20048;-81
2021/05/30 05:08:23;;;;;;;12.75;8.75;;;12.20;96.00;;;;;;5033852;28;20048;-79
2021/05/30 05:10:50;;;;;;;12.05;9.38;;;12.30;96.00;;;;;;5051678;28;20036;-79
2021/05/30 05:13:16;;;;;;;10.95;8.13;;;12.40;96.10;;;;;;5033961;28;20040;-80
2021/05/30 05:15:50;;;;;;;11.85;8.70;;;12.40;96.00;;;;;;5051782;28;20078;-79
2021/05/30 05:18:24;;;;;;;11.10;7.80;;;12.50;96.00;;;;;;5034128;28;20032;-80
2021/05/30 05:20:51;;;;;;;10.55;8.98;;;12.60;95.90;;;;;;5051322;28;20024;-79
2021/05/30 05:23:22;;;;;;;15.10;8.77;;;12.70;95.90;;;;;;5033780;28;20142;-81
2021/05/30 05:25:53;;;;;;;12.60;8.45;;;12.80;95.90;;;;;;5034027;28;20124;-78
2021/05/30 05:28:19;;;;;;;11.18;8.82;;;12.80;95.90;;;;;;5033548;28;20025;-81
2021/05/30 05:30:45;;;;;;;11.13;8.52;;;12.90;95.90;;;;;;5051376;28;20502;-79
2021/05/30 05:33:11;;;;;;;16.98;9.93;;;12.90;96.00;;;;;;5033623;28;20045;-80
2021/05/30 05:35:36;;;;;;;20.75;10.15;;;13.00;96.10;;;;;;5033380;28;20538;-79
2021/05/30 05:38:02;;;;;;;14.98;10.80;;;13.10;96.20;;;;;;5033724;28;20017;-79
2021/05/30 05:40:29;;;;;;;15.38;9.82;;;13.10;96.20;;;;;;5017000;28;20021;-79
2021/05/30 05:42:56;;;;;;;17.00;10.85;;;13.20;96.20;;;;;;5033315;28;20503;-78
2021/05/30 05:45:23;;;;;;;15.55;11.00;;;13.30;96.20;;;;;;5051094;28;20040;-79
2021/05/30 05:47:51;;;;;;;18.60;11.63;;;13.40;96.30;;;;;;5033507;28;20103;-79
2021/05/30 05:50:19;;;;;;;18.42;12.88;;;13.50;96.30;;;;;;5033553;28;20025;-79
2021/05/30 05:52:46;;;;;;;18.63;12.07;;;13.60;96.30;;;;;;5033310;28;20467;-79
2021/05/30 05:55:12;;;;;;;14.48;10.90;;;13.70;96.50;;;;;;5050954;28;20045;-81
2021/05/30 05:57:40;;;;;;;14.02;10.25;;;14.20;97.30;;;;;;5016542;28;20025;-79
2021/05/30 06:00:13;;;;;;;13.48;9.88;;;15.70;96.80;;;;;;5032675;28;20064;-80
2021/05/30 06:02:38;;;;;;;17.40;9.82;;;17.50;94.90;;;;;;5033794;28;20021;-79
2021/05/30 06:05:06;;;;;;;15.93;10.02;;;19.10;92.20;;;;;;5032470;28;20052;-78
2021/05/30 06:07:32;;;;;;;14.23;9.00;;;20.20;89.40;;;;;;5032823;28;20454;-79
2021/05/30 06:09:58;;;;;;;13.85;8.80;;;21.10;85.50;;;;;;5031528;28;20053;-79
2021/05/30 06:12:23;;;;;;;13.90;9.30;;;21.90;82.70;;;;;;5015567;28;20101;-78
2021/05/30 06:14:49;;;;;;;13.32;8.73;;;22.60;79.70;;;;;;5032545;28;20035;-80
2021/05/30 06:17:15;;;;;;;13.00;9.32;;;23.30;77.30;;;;;;5015750;28;20029;-80
2021/05/30 06:19:40;;;;;;;12.38;8.00;;;24.00;74.80;;;;;;5015311;28;20032;-79
2021/05/30 06:22:07;;;;;;;12.10;9.15;;;24.70;72.20;;;;;;5031895;28;20032;-80
2021/05/30 06:24:34;;;;;;;11.40;8.45;;;25.40;70.00;;;;;;5031682;28;20029;-79
2021/05/30 06:27:01;;;;;;;10.52;8.57;;;25.80;67.90;;;;;;5015210;28;20029;-79
2021/05/30 06:29:27;;;;;;;12.27;8.13;;;26.20;66.10;;;;;;5049578;28;20025;-81
2021/05/30 06:31:54;;;;;;;13.88;7.93;;;26.60;64.70;;;;;;5031466;28;20039;-79
2021/05/30 06:34:19;;;;;;;10.65;6.88;;;26.80;63.60;;;;;;5031578;28;20029;-80
2021/05/30 06:36:47;;;;;;;7.72;6.53;;;27.00;62.90;;;;;;5031360;28;20147;-79
2021/05/30 06:39:13;;;;;;;8.73;7.75;;;27.50;62.10;;;;;;5031367;28;20025;-79
2021/05/30 06:41:39;;;;;;;10.95;6.97;;;27.80;60.70;;;;;;5015064;28;20025;-81
2021/05/30 06:44:05;;;;;;;9.90;7.85;;;28.10;60.00;;;;;;5031548;28;20025;-79
2021/05/30 06:46:32;;;;;;;10.73;7.65;;;28.40;58.90;;;;;;5049153;28;20379;-80
2021/05/30 06:48:58;;;;;;;7.25;6.55;;;28.50;58.10;;;;;;5049134;28;20489;-80
2021/05/30 06:51:29;;;;;;;9.57;6.53;;;28.90;57.80;;;;;;5049055;28;20445;-82
2021/05/30 06:53:55;;;;;;;9.10;6.88;;;29.40;57.00;;;;;;5031579;28;20083;-79
2021/05/30 06:56:20;;;;;;;7.00;5.85;;;29.80;56.50;;;;;;5014413;28;20044;-79
2021/05/30 06:58:46;;;;;;;12.15;6.55;;;30.00;55.80;;;;;;5031185;28;20471;-80
2021/05/30 07:01:12;;;;;;;9.00;6.50;;;30.20;55.50;;;;;;5014835;28;20036;-80
2021/05/30 07:03:38;;;;;;;8.48;6.00;;;30.40;55.00;;;;;;5014603;28;20029;-80
2021/05/30 07:06:05;;;;;;;8.40;6.57;;;30.70;54.50;;;;;;5048910;28;20406;-79
2021/05/30 07:08:31;;;;;;;10.40;5.95;;;30.90;53.90;;;;;;5031172;28;20043;-79
2021/05/30 07:10:57;;;;;;;7.07;5.30;;;31.20;53.40;;;;;;5049064;28;20029;-80
2021/05/30 07:13:23;;;;;;;8.63;5.30;;;31.30;52.80;;;;;;5048405;28;20387;-80
2021/05/30 07:15:51;;;;;;;13.35;4.85;;;31.50;52.40;;;;;;5030583;28;20104;-80
2021/05/30 07:18:22;;;;;;;5.60;4.50;;;31.60;52.20;;;;;;5048822;28;20025;-83
2021/05/30 07:20:48;;;;;;;7.72;4.68;;;31.80;52.00;;;;;;5048499;28;20036;-81
2021/05/30 07:23:15;;;;;;;9.75;4.90;;;32.20;51.40;;;;;;5013673;28;20025;-81
2021/05/30 07:25:41;;;;;;;8.90;3.80;;;32.60;50.90;;;;;;5048239;28;20056;-80
2021/05/30 07:28:07;;;;;;;5.90;4.00;;;32.80;50.40;;;;;;5030447;28;20029;-81
2021/05/30 07:30:34;;;;;;;6.55;3.95;;;33.10;49.90;;;;;;5048324;28;20025;-80
2021/05/30 07:33:01;;;;;;;4.75;3.70;;;33.20;49.50;;;;;;5014349;28;20033;-80
2021/05/30 07:35:28;;;;;;;7.43;4.30;;;33.30;49.10;;;;;;5030394;28;20166;-80
2021/05/30 07:37:53;;;;;;;9.57;4.00;;;33.30;48.90;;;;;;5048157;28;20484;-80
2021/05/30 07:40:19;;;;;;;9.68;3.67;;;33.60;48.60;;;;;;5030002;28;20033;-80
2021/05/30 07:42:48;;;;;;;5.20;3.35;;;33.80;48.40;;;;;;5029885;28;20042;-80
2021/05/30 07:45:16;;;;;;;5.50;3.22;;;33.90;47.70;;;;;;5030153;28;20013;-79
2021/05/30 07:47:42;;;;;;;5.75;3.40;;;34.10;48.10;;;;;;5030202;28;20140;-79
2021/05/30 07:50:09;;;;;;;14.95;3.15;;;34.00;47.40;;;;;;5047823;28;20496;-81
2021/05/30 07:52:35;;;;;;;4.32;2.60;;;34.20;47.50;;;;;;5048630;28;20029;-80
2021/05/30 07:55:01;;;;;;;3.72;2.92;;;34.50;47.20;;;;;;5030358;28;20048;-82
2021/05/30 07:57:26;;;;;;;7.65;2.78;;;35.00;46.40;;;;;;5048163;28;20088;-79
2021/05/30 07:59:52;;;;;;;4.50;2.80;;;35.20;46.40;;;;;;5029637;28;20387;-79
2021/05/30 08:02:18;;;;;;;5.72;2.78;;;35.50;45.90;;;;;;5030297;28;20100;-80
2021/05/30 08:04:44;;;;;;;4.35;2.45;;;35.70;45.40;;;;;;5030071;28;20025;-79
2021/05/30 08:07:10;;;;;;;8.35;2.78;;;35.70;45.00;;;;;;5030135;28;20442;-79
2021/05/30 08:09:36;;;;;;;5.93;2.65;;;35.70;45.10;;;;;;5047445;28;20061;-79
2021/05/30 08:12:03;;;;;;;6.63;2.83;;;35.90;45.10;;;;;;5029680;28;20039;-78
2021/05/30 08:14:29;;;;;;;3.97;2.90;;;36.20;44.80;;;;;;5029633;28;20033;-79
2021/05/30 08:16:55;;;;;;;6.97;2.42;;;36.40;44.30;;;;;;5029690;28;20475;-79
2021/05/30 08:19:21;;;;;;;4.03;2.10;;;36.20;44.10;;;;;;5030298;28;20032;-81
2021/05/30 08:21:46;;;;;;;4.10;2.20;;;36.20;44.10;;;;;;5029796;28;20122;-78
2021/05/30 08:24:12;;;;;;;4.80;1.83;;;36.30;43.50;;;;;;5029304;28;20071;-79
2021/05/30 08:26:39;;;;;;;4.07;2.10;;;36.50;43.20;;;;;;5029207;28;20061;-80
2021/05/30 08:29:05;;;;;;;5.15;2.90;;;36.50;42.80;;;;;;5047016;28;20219;-79
2021/05/30 08:31:31;;;;;;;5.25;1.70;;;36.60;42.70;;;;;;5029783;28;20041;-78
2021/05/30 08:33:56;;;;;;;3.90;2.15;;;36.70;42.90;;;;;;5030290;28;20102;-79
2021/05/30 08:36:22;;;;;;;4.70;1.90;;;36.80;42.80;;;;;;5030093;28;20033;-79
2021/05/30 08:38:48;;;;;;;4.32;2.08;;;36.90;42.70;;;;;;5029880;28;20366;-78
2021/05/30 08:41:13;;;;;;;4.35;2.53;;;37.10;42.60;;;;;;5030721;28;20098;-80
2021/05/30 08:43:39;;;;;;;6.03;2.17;;;37.20;42.50;;;;;;5048813;28;20455;-78
2021/05/30 08:46:05;;;;;;;5.35;2.28;;;37.30;42.10;;;;;;5014135;28;20044;-79
2021/05/30 08:48:31;;;;;;;4.65;2.20;;;37.10;42.20;;;;;;5029965;28;20406;-79
2021/05/30 08:51:03;;;;;;;5.22;2.53;;;37.20;42.50;;;;;;5029615;28;20036;-80
2021/05/30 08:53:35;;;;;;;3.17;2.28;;;37.70;42.20;;;;;;5029008;28;20032;-81
2021/05/30 08:56:02;;;;;;;2.83;1.75;;;37.90;41.70;;;;;;5046740;28;20049;-79
2021/05/30 08:58:45;;;;;;;3.17;2.40;;;38.10;41.30;;;;;;5028856;28;20075;-80
2021/05/30 09:01:22;;;;;;;3.05;1.80;;;38.00;41.20;;;;;;5029142;28;20048;-80
2021/05/30 09:04:05;;;;;;;4.90;2.10;;;38.10;41.50;;;;;;5029037;28;20052;-79
2021/05/30 09:06:32;;;;;;;5.65;2.30;;;38.50;41.30;;;;;;5046970;28;20024;-79
2021/05/30 09:08:58;;;;;;;4.93;2.20;;;39.00;41.10;;;;;;5047255;28;20061;-78
2021/05/30 09:11:36;;;;;;;4.55;2.03;;;38.90;40.70;;;;;;5028890;28;20163;-78
2021/05/30 09:14:04;;;;;;;8.10;2.93;;;38.80;40.40;;;;;;5047039;28;20426;-79
2021/05/30 09:16:48;;;;;;;2.70;2.10;;;38.70;40.40;;;;;;5046447;28;20035;-79
2021/05/30 09:19:33;;;;;;;4.97;2.00;;;38.60;40.50;;;;;;5046558;28;20100;-80
2021/05/30 09:22:17;;;;;;;4.78;2.38;;;38.60;40.80;;;;;;5046657;28;20032;-82
2021/05/30 09:24:52;;;;;;;4.32;1.92;;;38.80;40.60;;;;;;5046544;28;20017;-79
2021/05/30 09:27:25;;;;;;;6.30;2.72;;;38.80;40.50;;;;;;5028758;28;20036;-78
2021/05/30 09:30:30;;;;;;;5.15;2.00;;;38.50;40.20;;;;;;5029477;28;20031;-78
2021/05/30 09:33:02;;;;;;;2.80;1.77;;;38.60;40.30;;;;;;5045800;28;20045;-78
2021/05/30 09:35:37;;;;;;;6.35;2.95;;;38.70;40.60;;;;;;5046435;28;20025;-79
2021/05/30 09:38:20;;;;;;;3.80;2.08;;;38.30;40.20;;;;;;5028814;28;20029;-78
2021/05/30 09:40:52;;;;;;;3.85;2.00;;;37.80;40.10;;;;;;5046962;28;20067;-79
2021/05/30 09:43:26;;;;;;;3.70;2.10;;;36.90;40.50;;;;;;5028555;28;20074;-81
2021/05/30 09:46:03;;;;;;;4.32;2.38;;;36.10;40.90;;;;;;5014764;28;20145;-78
2021/05/30 09:48:30;;;;;;;4.28;2.00;;;35.70;41.10;;;;;;5033185;28;20111;-78
2021/05/30 09:51:08;;;;;;;4.30;2.45;;;34.90;41.30;;;;;;5031891;28;20060;-79
2021/05/30 09:53:43;;;;;;;5.60;2.65;;;34.60;42.30;;;;;;5032016;28;20436;-78
2021/05/30 09:56:28;;;;;;;3.97;2.10;;;35.40;42.60;;;;;;5031533;28;20357;-79
2021/05/30 09:58:55;;;;;;;3.78;2.35;;;36.40;42.40;;;;;;5031423;28;20028;-79
2021/05/30 10:01:22;;;;;;;5.30;2.40;;;37.30;42.10;;;;;;5031939;28;20111;-80
2021/05/30 10:03:47;;;;;;;4.93;2.13;;;37.90;41.80;;;;;;5049758;28;20028;-78
2021/05/30 10:06:13;;;;;;;4.43;2.20;;;38.30;41.70;;;;;;5015319;28;20070;-78
2021/05/30 10:08:39;;;;;;;7.18;2.90;;;38.60;40.70;;;;;;5049523;28;20037;-80
2021/05/30 10:11:05;;;;;;;4.57;2.47;;;38.80;40.20;;;;;;5049773;28;20028;-78
2021/05/30 10:13:31;;;;;;;4.65;2.25;;;39.00;40.00;;;;;;5032591;28;20131;-78
2021/05/30 10:15:59;;;;;;;3.92;2.33;;;39.30;39.80;;;;;;5049797;28;20531;-80
2021/05/30 10:18:38;;;;;;;3.80;2.40;;;39.70;40.10;;;;;;5034374;28;20028;-79
2021/05/30 10:21:05;;;;;;;5.63;3.05;;;40.00;39.40;;;;;;5050910;28;20534;-78
2021/05/30 10:23:32;;;;;;;5.18;2.58;;;40.10;38.80;;;;;;5031553;28;20052;-78
2021/05/30 10:26:19;;;;;;;4.35;2.20;;;40.20;38.70;;;;;;5032998;28;20080;-79
2021/05/30 10:29:02;;;;;;;4.18;2.20;;;40.10;38.60;;;;;;5049086;28;20542;-81
2021/05/30 10:31:33;;;;;;;7.13;1.88;;;40.10;38.50;;;;;;5032505;28;20120;-79
2021/05/30 10:34:17;;;;;;;6.55;2.22;;;40.30;38.80;;;;;;5050234;28;20060;-79
2021/05/30 10:37:00;;;;;;;3.92;2.22;;;40.10;38.80;;;;;;5050301;28;20051;-79
2021/05/30 10:39:35;;;;;;;2.35;1.90;;;40.10;38.80;;;;;;5050275;28;20021;-80
2021/05/30 10:42:11;;;;;;;5.00;2.33;;;40.20;38.60;;;;;;5032730;28;20032;-79
2021/05/30 10:44:59;;;;;;;2.78;2.00;;;40.00;38.50;;;;;;5050127;28;20037;-79
2021/05/30 10:47:43;;;;;;;3.70;2.15;;;40.10;38.60;;;;;;5032742;28;20025;-79
2021/05/30 10:50:15;;;;;;;6.95;2.40;;;40.60;39.20;;;;;;5050062;28;20029;-80
2021/05/30 10:52:43;;;;;;;4.57;2.17;;;40.80;38.20;;;;;;5050561;28;20039;-79
2021/05/30 10:55:15;;;;;;;5.75;2.47;;;40.00;38.00;;;;;;5049737;28;20472;-78
2021/05/30 10:58:16;;;;;;;7.57;2.60;;;38.70;38.20;;;;;;5048435;28;20083;-79
2021/05/30 11:00:44;;;;;;;5.22;2.13;;;37.20;38.30;;;;;;5044252;28;20064;-79
2021/05/30 11:03:12;;;;;;;4.32;2.08;;;36.40;39.60;;;;;;5049724;28;20021;-78
2021/05/30 11:05:46;;;;;;;4.30;2.00;;;36.80;40.60;;;;;;5049104;28;20493;-79
2021/05/30 11:08:30;;;;;;;2.55;1.70;;;37.40;39.80;;;;;;5030523;28;20554;-80
2021/05/30 11:11:25;;;;;;;5.03;2.38;;;37.90;39.60;;;;;;5049079;28;20029;-81
2021/05/30 11:13:59;;;;;;;5.70;2.80;;;38.60;38.80;;;;;;5048533;28;20025;-79
2021/05/30 11:16:29;;;;;;;6.30;2.72;;;37.90;38.10;;;;;;5030510;28;20104;-78
2021/05/30 11:19:06;;;;;;;6.28;2.35;;;36.90;38.60;;;;;;5048320;28;20502;-79
2021/05/30 11:21:42;;;;;;;3.13;1.90;;;36.20;39.40;;;;;;5048264;28;20089;-78
2021/05/30 11:24:13;;;;;;;4.20;2.20;;;35.50;39.50;;;;;;5030345;28;20472;-79
2021/05/30 11:26:53;;;;;;;2.72;1.48;;;34.70;39.90;;;;;;5047837;28;20028;-79
2021/05/30 11:29:20;;;;;;;4.30;2.00;;;33.80;39.70;;;;;;5028761;28;20072;-78
2021/05/30 11:31:45;;;;;;;2.60;1.20;;;33.10;40.00;;;;;;5029887;28;20130;-79
2021/05/30 11:34:12;;;;;;;3.75;1.90;;;32.60;39.90;;;;;;5029629;28;20064;-78
2021/05/30 11:36:38;;;;;;;4.40;1.50;;;32.00;39.80;;;;;;5047467;28;20017;-79
2021/05/30 11:39:11;;;;;;;3.47;1.63;;;31.60;39.90;;;;;;5046963;28;20020;-79
2021/05/30 11:41:49;;;;;;;3.58;1.65;;;31.30;40.20;;;;;;5048205;28;20029;-79
2021/05/30 11:44:16;;;;;;;4.07;3.60;;;31.00;39.80;;;;;;5013925;28;20025;-79
2021/05/30 11:46:51;;;;;;;3.95;1.92;;;30.60;40.10;;;;;;5012782;28;20033;-77
2021/05/30 11:49:24;;;;;;;2.67;1.70;;;30.30;40.10;;;;;;5047421;28;20033;-79
2021/05/30 11:51:58;;;;;;;2.85;1.58;;;30.10;40.50;;;;;;5029267;28;20340;-68
2021/05/30 11:54:26;;;;;;;4.10;1.35;;;30.10;40.80;;;;;;5047192;28;20031;-78
2021/05/30 11:56:57;;;;;;;3.35;1.50;;;30.00;40.70;;;;;;5046797;28;20029;-79
2021/05/30 11:59:39;;;;;;;2.20;1.33;;;30.00;40.50;;;;;;5046344;28;20031;-78
2021/05/30 12:02:06;;;;;;;2.15;1.30;;;;;;;;;;5046761;28;20050;-77
2021/05/30 12:04:39;;;;;;;4.68;2.53;;;29.70;39.60;;;;;;5012218;28;20398;-79
2021/05/30 12:07:12;;;;;;;4.93;2.58;;;29.30;41.70;;;;;;5046367;28;20025;-77
2021/05/30 12:09:47;;;;;;;4.65;2.90;;;29.40;42.10;;;;;;5046935;28;20035;-80
2021/05/30 12:12:22;;;;;;;13.48;2.78;;;29.60;43.80;;;;;;5029239;28;20028;-79
2021/05/30 12:14:48;;;;;;;4.78;2.50;;;30.20;42.90;;;;;;5046955;28;20040;-79
2021/05/30 12:17:13;;;;;;;5.38;2.90;;;30.80;43.40;;;;;;5027810;28;20037;-78
2021/05/30 12:19:44;;;;;;;4.00;2.35;;;31.20;43.10;;;;;;5028570;28;20059;-77
2021/05/30 12:22:09;;;;;;;3.33;1.20;;;30.90;42.80;;;;;;5046482;28;20072;-79
2021/05/30 12:24:37;;;;;;;3.13;1.80;;;30.50;42.60;;;;;;5011854;28;20033;-77
2021/05/30 12:27:03;;;;;;;33.72;16.50;;;30.40;41.90;;;;;;5046456;28;20032;-77
2021/05/30 12:29:31;;;;;;;9.95;5.10;;;30.40;42.40;;;;;;5028328;28;20045;-80
2021/05/30 12:31:57;;;;;;;4.70;2.33;;;30.70;42.30;;;;;;5012569;28;20106;-77
2021/05/30 12:34:35;;;;;;;5.38;2.50;;;31.10;42.50;;;;;;5046235;28;20025;-75
2021/05/30 12:37:01;;;;;;;4.55;2.20;;;31.70;43.20;;;;;;5028306;28;20098;-80
2021/05/30 12:39:28;;;;;;;4.35;2.80;;;32.50;43.60;;;;;;5011710;28;20428;-78
2021/05/30 12:41:58;;;;;;;4.00;2.65;;;32.70;42.40;;;;;;5027692;28;20048;-77
2021/05/30 12:44:34;;;;;;;3.97;1.73;;;32.10;42.10;;;;;;5046371;28;20028;-78
2021/05/30 12:47:21;;;;;;;4.38;2.70;;;31.40;41.60;;;;;;5046801;28;20108;-80
2021/05/30 12:49:58;;;;;;;4.47;3.20;;;30.70;42.30;;;;;;5012924;28;20029;-80